createdAt,value
2018-09-20T00:03:48.902Z,4.73
2018-09-20T00:09:08.568Z,4.60
2018-09-20T00:14:27.326Z,4.70
2018-09-20T00:19:45.893Z,4.57
2018-09-20T00:25:04.481Z,5.30
2018-09-20T00:30:22.993Z,4.40
2018-09-20T00:35:41.574Z,4.97
2018-09-20T00:41:00.142Z,4.37
2018-09-20T00:46:18.728Z,5.37
2018-09-20T00:51:38.155Z,4.50
2018-09-20T00:56:56.730Z,4.63
2018-09-20T01:02:15.890Z,4.23
2018-09-20T01:07:34.471Z,4.40
2018-09-20T01:12:53.711Z,4.47
2018-09-20T01:18:12.229Z,4.62
2018-09-20T01:23:31.499Z,3.90
2018-09-20T01:28:50.102Z,4.20
2018-09-20T01:34:08.632Z,4.53
2018-09-20T01:39:27.296Z,5.77
2018-09-20T01:44:45.912Z,4.50
2018-09-20T01:50:06.739Z,4.97
2018-09-20T01:55:25.366Z,4.43
2018-09-20T02:00:44.741Z,5.07
2018-09-20T02:06:03.343Z,4.83
2018-09-20T02:11:22.631Z,4.80
2018-09-20T02:16:41.202Z,5.77
2018-09-20T02:22:00.240Z,4.93
2018-09-20T02:27:19.687Z,5.70
2018-09-20T02:32:38.971Z,5.27
2018-09-20T02:37:57.510Z,5.43
2018-09-20T02:43:16.295Z,5.77
2018-09-20T02:48:35.484Z,5.50
2018-09-20T02:53:54.042Z,5.80
2018-09-20T02:59:12.635Z,5.73
2018-09-20T03:04:31.387Z,5.53
2018-09-20T03:09:49.957Z,5.93
2018-09-20T03:15:08.527Z,5.30
2018-09-20T03:20:27.222Z,5.90
2018-09-20T03:25:45.741Z,5.13
2018-09-20T03:31:04.462Z,5.67
2018-09-20T03:36:23.512Z,5.53
2018-09-20T03:41:42.469Z,5.50
2018-09-20T03:47:01.105Z,6.60
2018-09-20T03:52:20.514Z,5.63
2018-09-20T03:57:39.049Z,6.20
2018-09-20T04:02:57.728Z,6.40
2018-09-20T04:08:16.336Z,6.20
2018-09-20T04:13:35.717Z,5.63
2018-09-20T04:18:54.865Z,5.63
2018-09-20T04:24:13.507Z,6.33
2018-09-20T04:29:32.803Z,6.23
2018-09-20T04:34:51.375Z,5.87
2018-09-20T04:40:09.938Z,5.97
2018-09-20T04:45:28.537Z,5.97
2018-09-20T04:50:47.210Z,6.60
2018-09-20T04:56:06.165Z,6.57
2018-09-20T05:01:24.726Z,5.83
2018-09-20T05:06:43.289Z,6.30
2018-09-20T05:12:03.404Z,6.87
2018-09-20T05:17:21.951Z,6.97
2018-09-20T05:22:40.520Z,7.23
2018-09-20T05:27:59.168Z,6.13
2018-09-20T05:33:17.751Z,6.43
2018-09-20T05:38:36.391Z,6.73
2018-09-20T05:43:55.020Z,6.50
2018-09-20T05:49:14.227Z,6.33
2018-09-20T05:54:33.286Z,6.23
2018-09-20T05:59:51.840Z,6.50
2018-09-20T06:05:10.356Z,6.03
2018-09-20T06:10:28.963Z,6.93
2018-09-20T06:15:47.575Z,6.23
2018-09-20T06:21:06.102Z,5.93
2018-09-20T06:26:24.917Z,5.27
2018-09-20T06:31:43.470Z,6.20
2018-09-20T06:37:02.201Z,5.40
2018-09-20T06:42:21.513Z,7.43
2018-09-20T06:47:40.064Z,5.50
2018-09-20T06:52:59.160Z,5.80
2018-09-20T06:58:17.735Z,6.10
2018-09-20T07:03:36.275Z,5.80
2018-09-20T07:08:55.411Z,5.40
2018-09-20T07:14:14.240Z,5.60
2018-09-20T07:19:32.870Z,4.77
2018-09-20T07:24:51.574Z,5.73
2018-09-20T07:30:10.629Z,4.47
2018-09-20T07:35:29.183Z,4.73
2018-09-20T07:40:47.686Z,4.77
2018-09-20T07:46:06.935Z,4.90
2018-09-20T07:51:25.451Z,4.97
2018-09-20T07:56:44.038Z,5.63
2018-09-20T08:02:02.737Z,4.23
2018-09-20T08:07:21.431Z,4.03
2018-09-20T08:12:40.103Z,4.83
2018-09-20T08:17:58.633Z,4.43
2018-09-20T08:23:17.526Z,4.40
2018-09-20T08:28:36.935Z,4.43
2018-09-20T08:33:56.164Z,3.93
2018-09-20T08:40:06.022Z,4.77
2018-09-20T08:45:24.552Z,4.43
2018-09-20T08:50:43.354Z,4.50
2018-09-20T08:56:01.877Z,4.80
2018-09-20T09:01:21.170Z,4.20
2018-09-20T09:06:39.834Z,4.53
2018-09-20T09:11:59.025Z,4.40
2018-09-20T09:17:17.544Z,4.47
2018-09-20T09:22:36.068Z,4.43
2018-09-20T09:27:55.287Z,4.17
2018-09-20T09:33:13.965Z,4.62
2018-09-20T09:38:33.184Z,4.12
2018-09-20T09:43:53.351Z,3.47
2018-09-20T09:49:11.999Z,4.12
2018-09-20T09:54:30.717Z,3.27
2018-09-20T09:59:49.293Z,3.60
2018-09-20T10:05:07.791Z,3.53
2018-09-20T10:10:26.334Z,3.97
2018-09-20T10:15:45.490Z,3.83
2018-09-20T10:21:04.209Z,3.40
2018-09-20T10:26:23.372Z,3.83
2018-09-20T10:31:41.929Z,3.08
2018-09-20T10:37:00.566Z,4.10
2018-09-20T10:42:19.824Z,3.50
2018-09-20T10:47:38.521Z,3.42
2018-09-20T10:52:57.472Z,2.83
2018-09-20T10:58:17.005Z,2.85
2018-09-20T11:03:35.691Z,2.80
2018-09-20T11:08:54.369Z,3.40
2018-09-20T11:14:13.127Z,3.05
2018-09-20T11:19:31.970Z,3.25
2018-09-20T11:24:50.736Z,3.30
2018-09-20T11:30:09.375Z,2.75
2018-09-20T11:35:28.139Z,2.83
2018-09-20T11:40:47.555Z,2.75
2018-09-20T11:46:07.150Z,2.40
2018-09-20T11:51:25.934Z,2.67
2018-09-20T11:56:44.979Z,2.47
2018-09-20T12:02:05.308Z,2.87
2018-09-20T12:07:24.803Z,2.95
2018-09-20T12:12:43.604Z,3.02
2018-09-20T12:18:02.187Z,2.87
2018-09-20T12:23:20.774Z,2.72
2018-09-20T12:28:40.035Z,3.37
2018-09-20T12:33:58.871Z,2.35
2018-09-20T12:39:17.622Z,2.40
2018-09-20T12:44:36.235Z,2.17
2018-09-20T12:49:54.854Z,2.42
2018-09-20T12:55:14.056Z,2.50
2018-09-20T13:00:32.898Z,2.52
2018-09-20T13:05:51.505Z,2.60
2018-09-20T13:11:10.888Z,3.12
2018-09-20T13:16:30.082Z,3.00
2018-09-20T13:21:49.479Z,2.83
2018-09-20T13:27:08.174Z,3.00
2018-09-20T13:32:27.361Z,2.85
2018-09-20T13:37:45.919Z,2.83
2018-09-20T13:43:05.116Z,2.35
2018-09-20T13:48:23.730Z,2.52
2018-09-20T13:53:42.396Z,3.10
2018-09-20T13:59:01.291Z,2.98
2018-09-20T14:04:19.907Z,2.30
2018-09-20T14:09:38.538Z,2.27
2018-09-20T14:14:57.273Z,2.40
2018-09-20T14:20:15.894Z,1.93
2018-09-20T14:25:35.850Z,2.90
2018-09-20T14:30:54.486Z,2.60
2018-09-20T14:36:13.244Z,2.40
2018-09-20T14:41:31.928Z,2.62
2018-09-20T14:46:50.728Z,2.58
2018-09-20T14:52:08.455Z,2.60
2018-09-20T14:57:26.100Z,3.25
2018-09-20T15:02:43.640Z,2.58
2018-09-20T15:08:01.198Z,2.42
2018-09-20T15:13:18.684Z,2.22
2018-09-20T15:18:36.179Z,2.47
2018-09-20T15:23:53.804Z,2.97
2018-09-20T15:29:11.251Z,2.55
2018-09-20T15:34:29.431Z,2.30
2018-09-20T15:39:48.214Z,2.33
2018-09-20T15:45:06.580Z,2.60
2018-09-20T15:50:24.029Z,2.33
2018-09-20T15:55:41.574Z,2.40
2018-09-20T16:00:59.075Z,4.50
2018-09-20T16:06:16.601Z,5.33
2018-09-20T16:11:34.115Z,2.63
2018-09-20T16:16:51.890Z,2.87
2018-09-20T16:22:09.330Z,2.60
2018-09-20T16:27:27.163Z,2.53
2018-09-20T16:33:09.400Z,2.47
2018-09-20T16:38:36.330Z,2.97
2018-09-20T16:43:53.878Z,2.73
2018-09-20T16:49:11.535Z,2.67
2018-09-20T16:54:29.157Z,2.40
2018-09-20T16:59:46.656Z,2.87
2018-09-20T17:05:04.317Z,2.70
2018-09-20T17:10:21.890Z,2.90
2018-09-20T17:15:39.389Z,2.80
2018-09-20T17:20:57.034Z,2.57
2018-09-20T17:26:14.610Z,2.57
2018-09-20T17:31:33.134Z,3.27
2018-09-20T17:36:52.531Z,2.80
2018-09-20T17:42:10.823Z,2.67
2018-09-20T17:47:28.398Z,2.97
2018-09-20T17:52:46.964Z,3.10
2018-09-20T17:58:06.111Z,2.30
2018-09-20T18:03:23.698Z,2.67
2018-09-20T18:08:41.161Z,2.47
2018-09-20T18:13:58.654Z,2.73
2018-09-20T18:19:16.284Z,2.67
2018-09-20T18:24:34.780Z,2.40
2018-09-20T18:29:52.209Z,2.60
2018-09-20T18:35:10.776Z,2.70
2018-09-20T18:40:28.256Z,3.73
2018-09-20T18:45:46.438Z,3.40
2018-09-20T18:51:03.902Z,2.83
2018-09-20T18:56:21.455Z,3.30
2018-09-20T19:01:38.908Z,3.00
2018-09-20T19:06:56.369Z,2.73
2018-09-20T19:12:14.688Z,2.67
2018-09-20T19:17:32.131Z,2.60
2018-09-20T19:22:49.619Z,3.47
2018-09-20T19:28:07.050Z,2.93
2018-09-20T19:33:24.591Z,3.20
2018-09-20T19:38:42.122Z,2.77
2018-09-20T19:43:59.681Z,3.47
2018-09-20T19:49:17.165Z,2.60
2018-09-20T19:54:34.599Z,3.03
2018-09-20T19:59:52.048Z,3.20
2018-09-20T20:05:09.459Z,2.43
2018-09-20T20:10:27.395Z,3.00
2018-09-20T20:15:45.630Z,2.97
2018-09-20T20:21:04.102Z,2.93
2018-09-20T20:26:21.523Z,2.90
2018-09-20T20:31:38.944Z,2.50
2018-09-20T20:36:56.388Z,3.37
2018-09-20T20:42:13.834Z,2.93
2018-09-20T20:47:32.055Z,3.00
2018-09-20T20:52:50.167Z,2.70
2018-09-20T20:58:07.632Z,2.93
2018-09-20T21:03:25.021Z,3.27
2018-09-20T21:08:42.491Z,2.90
2018-09-20T21:13:59.902Z,2.83
2018-09-20T21:19:17.304Z,2.90
2018-09-20T21:24:34.749Z,3.33
2018-09-20T21:29:52.211Z,3.17
2018-09-20T21:35:09.680Z,3.20
2018-09-20T21:40:27.117Z,3.23
2018-09-20T21:45:45.235Z,3.57
2018-09-20T21:51:02.905Z,3.30
2018-09-20T21:56:20.390Z,3.10
2018-09-20T22:01:44.182Z,3.30
2018-09-20T22:07:01.622Z,3.10
2018-09-20T22:12:19.056Z,3.47
2018-09-20T22:17:36.458Z,3.00
2018-09-20T22:22:53.850Z,3.00
2018-09-20T22:28:11.888Z,3.17
2018-09-20T22:33:29.317Z,3.20
2018-09-20T22:38:47.707Z,3.43
2018-09-20T22:44:05.145Z,4.23
2018-09-20T22:49:23.206Z,3.60
2018-09-20T22:54:40.652Z,3.70
2018-09-20T22:59:58.720Z,4.33
2018-09-20T23:05:16.169Z,3.63
2018-09-20T23:10:33.643Z,3.83
2018-09-20T23:15:51.051Z,3.10
2018-09-20T23:21:08.547Z,3.50
2018-09-20T23:26:26.677Z,3.57
2018-09-20T23:31:44.275Z,3.53
2018-09-20T23:37:02.145Z,3.67
2018-09-20T23:42:19.856Z,3.70
2018-09-20T23:47:37.314Z,3.93
2018-09-20T23:52:54.799Z,3.63
2018-09-20T23:58:13.080Z,4.17
